sensor_id;sensor_type;location;lat;lon;timestamp;P1;durP1;ratioP1;P2;durP2;ratioP2
72109;SDS011;59983;52.010;5.420;2022-10-22T00:02:26;8.23;;;6.53;;
72109;SDS011;59983;52.010;5.420;2022-10-22T00:04:53;10.30;;;8.10;;
72109;SDS011;59983;52.010;5.420;2022-10-22T00:07:22;6.90;;;6.25;;
72109;SDS011;59983;52.010;5.420;2022-10-22T00:09:48;8.20;;;7.60;;
72109;SDS011;59983;52.010;5.420;2022-10-22T00:12:15;6.50;;;6.00;;
72109;SDS011;59983;52.010;5.420;2022-10-22T00:14:42;9.53;;;6.47;;
72109;SDS011;59983;52.010;5.420;2022-10-22T00:17:09;10.63;;;6.60;;
72109;SDS011;59983;52.010;5.420;2022-10-22T00:19:37;7.43;;;6.82;;
72109;SDS011;59983;52.010;5.420;2022-10-22T00:22:04;6.82;;;6.32;;
72109;SDS011;59983;52.010;5.420;2022-10-22T00:24:32;11.73;;;6.43;;
72109;SDS011;59983;52.010;5.420;2022-10-22T00:26:59;7.00;;;6.30;;
72109;SDS011;59983;52.010;5.420;2022-10-22T00:29:26;6.60;;;6.00;;
72109;SDS011;59983;52.010;5.420;2022-10-22T00:31:52;7.25;;;6.53;;
72109;SDS011;59983;52.010;5.420;2022-10-22T00:34:24;8.88;;;6.72;;
72109;SDS011;59983;52.010;5.420;2022-10-22T00:36:50;6.20;;;5.80;;
72109;SDS011;59983;52.010;5.420;2022-10-22T00:39:18;6.47;;;5.77;;
72109;SDS011;59983;52.010;5.420;2022-10-22T00:41:46;12.35;;;6.57;;
72109;SDS011;59983;52.010;5.420;2022-10-22T00:47:18;6.60;;;6.00;;
72109;SDS011;59983;52.010;5.420;2022-10-22T00:49:46;6.47;;;6.00;;
72109;SDS011;59983;52.010;5.420;2022-10-22T00:52:13;6.70;;;5.90;;
72109;SDS011;59983;52.010;5.420;2022-10-22T00:54:39;7.88;;;6.85;;
72109;SDS011;59983;52.010;5.420;2022-10-22T00:57:07;8.35;;;5.57;;
72109;SDS011;59983;52.010;5.420;2022-10-22T00:59:35;6.80;;;6.25;;
72109;SDS011;59983;52.010;5.420;2022-10-22T01:02:02;9.48;;;6.45;;
72109;SDS011;59983;52.010;5.420;2022-10-22T01:04:29;7.17;;;6.47;;
72109;SDS011;59983;52.010;5.420;2022-10-22T01:06:55;7.57;;;6.10;;
72109;SDS011;59983;52.010;5.420;2022-10-22T01:12:02;6.82;;;6.28;;
72109;SDS011;59983;52.010;5.420;2022-10-22T01:14:56;6.53;;;5.93;;
72109;SDS011;59983;52.010;5.420;2022-10-22T01:17:47;7.33;;;6.57;;
72109;SDS011;59983;52.010;5.420;2022-10-22T01:26:22;7.50;;;6.40;;
72109;SDS011;59983;52.010;5.420;2022-10-22T01:29:10;6.20;;;5.70;;
72109;SDS011;59983;52.010;5.420;2022-10-22T01:31:42;7.33;;;6.63;;
72109;SDS011;59983;52.010;5.420;2022-10-22T01:34:13;7.03;;;6.32;;
72109;SDS011;59983;52.010;5.420;2022-10-22T01:36:43;7.05;;;6.45;;
72109;SDS011;59983;52.010;5.420;2022-10-22T01:39:12;10.82;;;5.75;;
72109;SDS011;59983;52.010;5.420;2022-10-22T01:41:42;9.75;;;5.75;;
72109;SDS011;59983;52.010;5.420;2022-10-22T01:47:04;9.52;;;6.70;;
72109;SDS011;59983;52.010;5.420;2022-10-22T01:49:48;6.70;;;6.10;;
72109;SDS011;59983;52.010;5.420;2022-10-22T01:52:44;6.90;;;6.20;;
72109;SDS011;59983;52.010;5.420;2022-10-22T01:58:38;6.27;;;5.60;;
72109;SDS011;59983;52.010;5.420;2022-10-22T02:00:57;13.55;;;5.93;;
72109;SDS011;59983;52.010;5.420;2022-10-22T02:03:29;7.70;;;5.95;;
72109;SDS011;59983;52.010;5.420;2022-10-22T02:06:04;7.57;;;6.38;;
72109;SDS011;59983;52.010;5.420;2022-10-22T02:08:38;10.65;;;6.20;;
72109;SDS011;59983;52.010;5.420;2022-10-22T02:11:04;6.63;;;5.77;;
72109;SDS011;59983;52.010;5.420;2022-10-22T02:14:14;5.68;;;5.20;;
72109;SDS011;59983;52.010;5.420;2022-10-22T02:16:25;7.18;;;5.63;;
72109;SDS011;59983;52.010;5.420;2022-10-22T02:18:57;7.05;;;5.80;;
72109;SDS011;59983;52.010;5.420;2022-10-22T02:21:27;7.60;;;6.93;;
72109;SDS011;59983;52.010;5.420;2022-10-22T02:23:54;6.53;;;5.73;;
72109;SDS011;59983;52.010;5.420;2022-10-22T02:26:23;6.47;;;6.03;;
72109;SDS011;59983;52.010;5.420;2022-10-22T02:28:58;10.23;;;6.28;;
72109;SDS011;59983;52.010;5.420;2022-10-22T02:31:32;6.93;;;6.32;;
72109;SDS011;59983;52.010;5.420;2022-10-22T02:34:04;7.00;;;6.32;;
72109;SDS011;59983;52.010;5.420;2022-10-22T02:36:36;6.60;;;6.07;;
72109;SDS011;59983;52.010;5.420;2022-10-22T02:39:03;6.95;;;6.35;;
72109;SDS011;59983;52.010;5.420;2022-10-22T02:41:33;7.03;;;6.47;;
72109;SDS011;59983;52.010;5.420;2022-10-22T02:44:00;6.93;;;6.32;;
72109;SDS011;59983;52.010;5.420;2022-10-22T02:46:28;7.30;;;6.80;;
72109;SDS011;59983;52.010;5.420;2022-10-22T02:48:54;7.40;;;6.73;;
72109;SDS011;59983;52.010;5.420;2022-10-22T02:51:20;7.10;;;6.35;;
72109;SDS011;59983;52.010;5.420;2022-10-22T02:53:47;9.07;;;6.65;;
72109;SDS011;59983;52.010;5.420;2022-10-22T02:56:13;9.18;;;6.07;;
72109;SDS011;59983;52.010;5.420;2022-10-22T02:58:40;7.22;;;6.22;;
72109;SDS011;59983;52.010;5.420;2022-10-22T03:01:07;6.67;;;6.07;;
72109;SDS011;59983;52.010;5.420;2022-10-22T03:03:37;5.57;;;5.28;;
72109;SDS011;59983;52.010;5.420;2022-10-22T03:06:04;9.45;;;5.82;;
72109;SDS011;59983;52.010;5.420;2022-10-22T03:08:30;7.13;;;6.65;;
72109;SDS011;59983;52.010;5.420;2022-10-22T03:10:57;8.60;;;6.55;;
72109;SDS011;59983;52.010;5.420;2022-10-22T03:13:23;7.50;;;6.43;;
72109;SDS011;59983;52.010;5.420;2022-10-22T03:15:50;12.00;;;6.05;;
72109;SDS011;59983;52.010;5.420;2022-10-22T03:18:16;6.30;;;5.70;;
72109;SDS011;59983;52.010;5.420;2022-10-22T03:20:43;5.72;;;5.18;;
72109;SDS011;59983;52.010;5.420;2022-10-22T03:23:10;5.93;;;5.47;;
72109;SDS011;59983;52.010;5.420;2022-10-22T03:25:40;7.00;;;5.87;;
72109;SDS011;59983;52.010;5.420;2022-10-22T03:28:08;6.05;;;5.53;;
72109;SDS011;59983;52.010;5.420;2022-10-22T03:30:38;6.45;;;5.85;;
72109;SDS011;59983;52.010;5.420;2022-10-22T03:33:04;7.35;;;6.38;;
72109;SDS011;59983;52.010;5.420;2022-10-22T03:35:31;7.80;;;6.40;;
72109;SDS011;59983;52.010;5.420;2022-10-22T03:38:01;7.37;;;6.60;;
72109;SDS011;59983;52.010;5.420;2022-10-22T03:40:28;6.18;;;5.65;;
72109;SDS011;59983;52.010;5.420;2022-10-22T03:42:54;7.38;;;6.78;;
72109;SDS011;59983;52.010;5.420;2022-10-22T03:45:21;6.88;;;6.18;;
72109;SDS011;59983;52.010;5.420;2022-10-22T03:47:47;6.53;;;5.70;;
72109;SDS011;59983;52.010;5.420;2022-10-22T03:50:14;7.93;;;7.00;;
72109;SDS011;59983;52.010;5.420;2022-10-22T03:52:40;10.43;;;5.68;;
72109;SDS011;59983;52.010;5.420;2022-10-22T03:55:07;6.47;;;5.97;;
72109;SDS011;59983;52.010;5.420;2022-10-22T03:57:34;12.77;;;6.05;;
72109;SDS011;59983;52.010;5.420;2022-10-22T04:00:02;7.13;;;6.43;;
72109;SDS011;59983;52.010;5.420;2022-10-22T04:02:30;7.10;;;6.40;;
72109;SDS011;59983;52.010;5.420;2022-10-22T04:04:56;7.57;;;6.80;;
72109;SDS011;59983;52.010;5.420;2022-10-22T04:07:23;9.30;;;6.57;;
72109;SDS011;59983;52.010;5.420;2022-10-22T04:09:49;7.00;;;6.40;;
72109;SDS011;59983;52.010;5.420;2022-10-22T04:12:16;9.30;;;7.03;;
72109;SDS011;59983;52.010;5.420;2022-10-22T04:14:43;8.27;;;6.80;;
72109;SDS011;59983;52.010;5.420;2022-10-22T04:17:09;8.85;;;6.28;;
72109;SDS011;59983;52.010;5.420;2022-10-22T04:19:36;6.97;;;6.30;;
72109;SDS011;59983;52.010;5.420;2022-10-22T04:22:02;9.40;;;6.15;;
72109;SDS011;59983;52.010;5.420;2022-10-22T04:24:29;6.50;;;5.72;;
72109;SDS011;59983;52.010;5.420;2022-10-22T04:26:57;10.33;;;6.13;;
72109;SDS011;59983;52.010;5.420;2022-10-22T04:29:24;5.88;;;5.28;;
72109;SDS011;59983;52.010;5.420;2022-10-22T04:31:50;11.10;;;7.10;;
72109;SDS011;59983;52.010;5.420;2022-10-22T04:34:17;7.07;;;6.43;;
72109;SDS011;59983;52.010;5.420;2022-10-22T04:36:43;9.98;;;6.78;;
72109;SDS011;59983;52.010;5.420;2022-10-22T04:39:10;12.33;;;6.70;;
72109;SDS011;59983;52.010;5.420;2022-10-22T04:41:37;8.85;;;6.18;;
72109;SDS011;59983;52.010;5.420;2022-10-22T04:44:05;9.73;;;6.65;;
72109;SDS011;59983;52.010;5.420;2022-10-22T04:46:38;6.72;;;6.13;;
72109;SDS011;59983;52.010;5.420;2022-10-22T04:49:05;14.25;;;6.97;;
72109;SDS011;59983;52.010;5.420;2022-10-22T04:51:31;8.17;;;6.37;;
72109;SDS011;59983;52.010;5.420;2022-10-22T04:53:58;8.38;;;6.22;;
72109;SDS011;59983;52.010;5.420;2022-10-22T04:56:26;11.00;;;6.40;;
72109;SDS011;59983;52.010;5.420;2022-10-22T04:58:55;8.02;;;6.50;;
72109;SDS011;59983;52.010;5.420;2022-10-22T05:01:24;7.43;;;6.90;;
72109;SDS011;59983;52.010;5.420;2022-10-22T05:03:53;12.33;;;6.40;;
72109;SDS011;59983;52.010;5.420;2022-10-22T05:06:21;11.27;;;7.22;;
72109;SDS011;59983;52.010;5.420;2022-10-22T05:08:56;8.35;;;7.30;;
72109;SDS011;59983;52.010;5.420;2022-10-22T05:11:25;9.43;;;6.25;;
72109;SDS011;59983;52.010;5.420;2022-10-22T05:13:57;8.38;;;7.13;;
72109;SDS011;59983;52.010;5.420;2022-10-22T05:16:24;8.37;;;7.27;;
72109;SDS011;59983;52.010;5.420;2022-10-22T05:18:51;9.10;;;6.43;;
72109;SDS011;59983;52.010;5.420;2022-10-22T05:21:19;7.38;;;6.70;;
72109;SDS011;59983;52.010;5.420;2022-10-22T05:23:47;10.60;;;6.82;;
72109;SDS011;59983;52.010;5.420;2022-10-22T05:26:16;7.97;;;6.53;;
72109;SDS011;59983;52.010;5.420;2022-10-22T05:28:45;8.03;;;6.33;;
72109;SDS011;59983;52.010;5.420;2022-10-22T05:31:18;10.30;;;7.03;;
72109;SDS011;59983;52.010;5.420;2022-10-22T05:33:45;9.63;;;6.18;;
72109;SDS011;59983;52.010;5.420;2022-10-22T05:36:16;13.18;;;7.43;;
72109;SDS011;59983;52.010;5.420;2022-10-22T05:38:44;11.20;;;6.23;;
72109;SDS011;59983;52.010;5.420;2022-10-22T05:41:15;8.30;;;5.93;;
72109;SDS011;59983;52.010;5.420;2022-10-22T05:43:46;8.60;;;6.45;;
72109;SDS011;59983;52.010;5.420;2022-10-22T05:46:14;9.52;;;6.45;;
72109;SDS011;59983;52.010;5.420;2022-10-22T05:48:51;11.07;;;6.45;;
72109;SDS011;59983;52.010;5.420;2022-10-22T05:51:22;7.00;;;5.93;;
72109;SDS011;59983;52.010;5.420;2022-10-22T05:53:50;9.43;;;5.75;;
72109;SDS011;59983;52.010;5.420;2022-10-22T05:56:21;7.63;;;6.43;;
72109;SDS011;59983;52.010;5.420;2022-10-22T05:58:48;8.75;;;5.28;;
72109;SDS011;59983;52.010;5.420;2022-10-22T06:01:17;10.35;;;6.18;;
72109;SDS011;59983;52.010;5.420;2022-10-22T06:03:45;6.60;;;5.97;;
72109;SDS011;59983;52.010;5.420;2022-10-22T06:08:47;6.78;;;6.10;;
72109;SDS011;59983;52.010;5.420;2022-10-22T06:11:16;11.02;;;5.53;;
72109;SDS011;59983;52.010;5.420;2022-10-22T06:13:44;9.48;;;6.00;;
72109;SDS011;59983;52.010;5.420;2022-10-22T06:16:11;7.37;;;5.53;;
72109;SDS011;59983;52.010;5.420;2022-10-22T06:18:38;6.70;;;5.50;;
72109;SDS011;59983;52.010;5.420;2022-10-22T06:21:09;9.95;;;6.00;;
72109;SDS011;59983;52.010;5.420;2022-10-22T06:23:37;9.07;;;5.60;;
72109;SDS011;59983;52.010;5.420;2022-10-22T06:26:05;9.35;;;6.20;;
72109;SDS011;59983;52.010;5.420;2022-10-22T06:28:32;6.10;;;5.60;;
72109;SDS011;59983;52.010;5.420;2022-10-22T06:30:59;9.40;;;4.55;;
72109;SDS011;59983;52.010;5.420;2022-10-22T06:33:27;7.30;;;5.63;;
72109;SDS011;59983;52.010;5.420;2022-10-22T06:35:54;7.63;;;5.47;;
72109;SDS011;59983;52.010;5.420;2022-10-22T06:38:21;7.53;;;5.43;;
72109;SDS011;59983;52.010;5.420;2022-10-22T06:40:47;9.73;;;5.23;;
72109;SDS011;59983;52.010;5.420;2022-10-22T06:43:14;6.95;;;5.72;;
72109;SDS011;59983;52.010;5.420;2022-10-22T06:45:40;11.25;;;6.03;;
72109;SDS011;59983;52.010;5.420;2022-10-22T06:48:07;6.03;;;4.75;;
72109;SDS011;59983;52.010;5.420;2022-10-22T06:50:33;6.47;;;5.03;;
72109;SDS011;59983;52.010;5.420;2022-10-22T06:53:00;12.07;;;5.80;;
72109;SDS011;59983;52.010;5.420;2022-10-22T06:55:26;7.53;;;4.88;;
72109;SDS011;59983;52.010;5.420;2022-10-22T06:57:54;10.70;;;4.88;;
72109;SDS011;59983;52.010;5.420;2022-10-22T07:00:20;9.93;;;5.25;;
72109;SDS011;59983;52.010;5.420;2022-10-22T07:02:51;9.75;;;4.45;;
72109;SDS011;59983;52.010;5.420;2022-10-22T07:05:24;5.27;;;4.80;;
72109;SDS011;59983;52.010;5.420;2022-10-22T07:07:50;10.82;;;5.18;;
72109;SDS011;59983;52.010;5.420;2022-10-22T07:10:17;8.68;;;5.28;;
72109;SDS011;59983;52.010;5.420;2022-10-22T07:12:43;9.02;;;5.00;;
72109;SDS011;59983;52.010;5.420;2022-10-22T07:15:10;8.25;;;4.93;;
72109;SDS011;59983;52.010;5.420;2022-10-22T07:17:36;7.90;;;5.03;;
72109;SDS011;59983;52.010;5.420;2022-10-22T07:20:08;8.32;;;4.40;;
72109;SDS011;59983;52.010;5.420;2022-10-22T07:22:35;5.78;;;4.57;;
72109;SDS011;59983;52.010;5.420;2022-10-22T07:25:02;10.55;;;4.63;;
72109;SDS011;59983;52.010;5.420;2022-10-22T07:27:32;8.40;;;4.80;;
72109;SDS011;59983;52.010;5.420;2022-10-22T07:29:59;8.83;;;3.87;;
72109;SDS011;59983;52.010;5.420;2022-10-22T07:32:26;4.93;;;4.47;;
72109;SDS011;59983;52.010;5.420;2022-10-22T07:34:53;11.75;;;4.72;;
72109;SDS011;59983;52.010;5.420;2022-10-22T07:37:19;9.52;;;4.60;;
72109;SDS011;59983;52.010;5.420;2022-10-22T07:39:47;9.80;;;4.60;;
72109;SDS011;59983;52.010;5.420;2022-10-22T07:42:14;7.77;;;5.33;;
72109;SDS011;59983;52.010;5.420;2022-10-22T07:44:41;7.45;;;5.43;;
72109;SDS011;59983;52.010;5.420;2022-10-22T07:47:07;7.00;;;4.82;;
72109;SDS011;59983;52.010;5.420;2022-10-22T07:49:34;5.80;;;4.43;;
72109;SDS011;59983;52.010;5.420;2022-10-22T07:52:00;6.88;;;4.15;;
72109;SDS011;59983;52.010;5.420;2022-10-22T07:54:27;7.60;;;3.93;;
72109;SDS011;59983;52.010;5.420;2022-10-22T07:56:53;6.85;;;4.03;;
72109;SDS011;59983;52.010;5.420;2022-10-22T07:59:20;8.27;;;4.90;;
72109;SDS011;59983;52.010;5.420;2022-10-22T08:01:46;6.32;;;4.90;;
72109;SDS011;59983;52.010;5.420;2022-10-22T08:04:13;5.18;;;4.00;;
72109;SDS011;59983;52.010;5.420;2022-10-22T08:06:39;9.30;;;4.27;;
72109;SDS011;59983;52.010;5.420;2022-10-22T08:09:12;8.13;;;5.07;;
72109;SDS011;59983;52.010;5.420;2022-10-22T08:11:38;7.63;;;4.72;;
72109;SDS011;59983;52.010;5.420;2022-10-22T08:14:05;9.30;;;3.90;;
72109;SDS011;59983;52.010;5.420;2022-10-22T08:16:31;4.95;;;4.25;;
72109;SDS011;59983;52.010;5.420;2022-10-22T08:18:58;10.13;;;4.20;;
72109;SDS011;59983;52.010;5.420;2022-10-22T08:21:25;10.13;;;4.10;;
72109;SDS011;59983;52.010;5.420;2022-10-22T08:23:51;12.40;;;4.68;;
72109;SDS011;59983;52.010;5.420;2022-10-22T08:26:18;14.30;;;4.07;;
72109;SDS011;59983;52.010;5.420;2022-10-22T08:28:45;5.85;;;4.88;;
72109;SDS011;59983;52.010;5.420;2022-10-22T08:31:12;5.57;;;3.97;;
72109;SDS011;59983;52.010;5.420;2022-10-22T08:33:38;6.10;;;4.15;;
72109;SDS011;59983;52.010;5.420;2022-10-22T08:36:05;6.53;;;4.00;;
72109;SDS011;59983;52.010;5.420;2022-10-22T08:38:32;6.50;;;4.40;;
72109;SDS011;59983;52.010;5.420;2022-10-22T08:41:16;8.57;;;4.07;;
72109;SDS011;59983;52.010;5.420;2022-10-22T08:49:22;7.60;;;3.63;;
72109;SDS011;59983;52.010;5.420;2022-10-22T08:51:52;13.13;;;4.78;;
72109;SDS011;59983;52.010;5.420;2022-10-22T08:54:26;10.45;;;4.28;;
72109;SDS011;59983;52.010;5.420;2022-10-22T08:59:45;6.82;;;3.42;;
72109;SDS011;59983;52.010;5.420;2022-10-22T09:02:16;7.30;;;3.72;;
72109;SDS011;59983;52.010;5.420;2022-10-22T09:07:45;7.60;;;3.53;;
72109;SDS011;59983;52.010;5.420;2022-10-22T09:10:18;10.53;;;3.70;;
72109;SDS011;59983;52.010;5.420;2022-10-22T09:12:49;6.20;;;3.80;;
72109;SDS011;59983;52.010;5.420;2022-10-22T09:15:17;8.18;;;3.65;;
72109;SDS011;59983;52.010;5.420;2022-10-22T09:17:49;8.48;;;3.67;;
72109;SDS011;59983;52.010;5.420;2022-10-22T09:25:56;10.55;;;4.03;;
72109;SDS011;59983;52.010;5.420;2022-10-22T09:28:24;6.82;;;3.80;;
72109;SDS011;59983;52.010;5.420;2022-10-22T09:30:51;9.88;;;4.53;;
72109;SDS011;59983;52.010;5.420;2022-10-22T09:33:24;6.47;;;3.65;;
72109;SDS011;59983;52.010;5.420;2022-10-22T09:35:54;10.23;;;4.70;;
72109;SDS011;59983;52.010;5.420;2022-10-22T09:38:29;6.43;;;4.05;;
72109;SDS011;59983;52.010;5.420;2022-10-22T09:41:04;10.00;;;4.82;;
72109;SDS011;59983;52.010;5.420;2022-10-22T09:43:31;10.02;;;4.18;;
72109;SDS011;59983;52.010;5.420;2022-10-22T09:45:59;6.75;;;4.07;;
72109;SDS011;59983;52.010;5.420;2022-10-22T09:48:29;7.93;;;4.30;;
72109;SDS011;59983;52.010;5.420;2022-10-22T09:51:10;10.95;;;4.10;;
72109;SDS011;59983;52.010;5.420;2022-10-22T09:53:44;9.23;;;4.00;;
72109;SDS011;59983;52.010;5.420;2022-10-22T09:56:16;11.05;;;3.60;;
72109;SDS011;59983;52.010;5.420;2022-10-22T09:58:49;6.32;;;3.10;;
72109;SDS011;59983;52.010;5.420;2022-10-22T10:01:18;7.53;;;3.47;;
72109;SDS011;59983;52.010;5.420;2022-10-22T10:03:48;11.05;;;3.53;;
72109;SDS011;59983;52.010;5.420;2022-10-22T10:06:19;9.18;;;3.70;;
72109;SDS011;59983;52.010;5.420;2022-10-22T10:08:47;12.88;;;3.47;;
72109;SDS011;59983;52.010;5.420;2022-10-22T10:11:17;6.20;;;3.53;;
72109;SDS011;59983;52.010;5.420;2022-10-22T10:27:48;9.07;;;3.43;;
72109;SDS011;59983;52.010;5.420;2022-10-22T10:30:23;9.93;;;3.65;;
72109;SDS011;59983;52.010;5.420;2022-10-22T10:35:26;7.07;;;3.50;;
72109;SDS011;59983;52.010;5.420;2022-10-22T10:40:49;6.93;;;3.87;;
72109;SDS011;59983;52.010;5.420;2022-10-22T10:43:20;9.85;;;3.53;;
72109;SDS011;59983;52.010;5.420;2022-10-22T10:46:01;7.78;;;3.38;;
72109;SDS011;59983;52.010;5.420;2022-10-22T10:49:51;12.48;;;3.72;;
72109;SDS011;59983;52.010;5.420;2022-10-22T11:07:58;6.20;;;3.00;;
72109;SDS011;59983;52.010;5.420;2022-10-22T11:13:16;7.57;;;2.83;;
72109;SDS011;59983;52.010;5.420;2022-10-22T11:18:55;12.27;;;3.03;;
72109;SDS011;59983;52.010;5.420;2022-10-22T11:22:13;9.10;;;2.50;;
72109;SDS011;59983;52.010;5.420;2022-10-22T11:27:27;6.38;;;2.80;;
72109;SDS011;59983;52.010;5.420;2022-10-22T11:30:01;9.40;;;2.80;;
72109;SDS011;59983;52.010;5.420;2022-10-22T11:32:36;8.68;;;2.70;;
72109;SDS011;59983;52.010;5.420;2022-10-22T11:35:08;10.13;;;2.67;;
72109;SDS011;59983;52.010;5.420;2022-10-22T11:37:51;8.32;;;2.17;;
72109;SDS011;59983;52.010;5.420;2022-10-22T11:40:24;7.20;;;3.03;;
72109;SDS011;59983;52.010;5.420;2022-10-22T11:43:09;9.35;;;3.00;;
72109;SDS011;59983;52.010;5.420;2022-10-22T11:45:53;10.93;;;3.20;;
72109;SDS011;59983;52.010;5.420;2022-10-22T11:48:26;7.13;;;2.70;;
72109;SDS011;59983;52.010;5.420;2022-10-22T11:50:57;6.97;;;2.47;;
72109;SDS011;59983;52.010;5.420;2022-10-22T11:58:41;10.00;;;2.50;;
72109;SDS011;59983;52.010;5.420;2022-10-22T12:03:40;6.32;;;2.78;;
72109;SDS011;59983;52.010;5.420;2022-10-22T12:06:17;11.80;;;2.83;;
72109;SDS011;59983;52.010;5.420;2022-10-22T12:11:24;9.93;;;2.58;;
72109;SDS011;59983;52.010;5.420;2022-10-22T12:16:52;8.73;;;2.60;;
72109;SDS011;59983;52.010;5.420;2022-10-22T12:19:29;12.35;;;3.45;;
72109;SDS011;59983;52.010;5.420;2022-10-22T12:22:14;8.98;;;2.85;;
72109;SDS011;59983;52.010;5.420;2022-10-22T12:24:45;10.55;;;3.28;;
72109;SDS011;59983;52.010;5.420;2022-10-22T12:27:16;13.63;;;3.10;;
72109;SDS011;59983;52.010;5.420;2022-10-22T12:29:52;10.73;;;3.83;;
72109;SDS011;59983;52.010;5.420;2022-10-22T12:32:22;9.57;;;3.00;;
72109;SDS011;59983;52.010;5.420;2022-10-22T12:34:57;10.85;;;2.83;;
72109;SDS011;59983;52.010;5.420;2022-10-22T12:37:36;9.50;;;3.33;;
72109;SDS011;59983;52.010;5.420;2022-10-22T12:40:16;10.33;;;3.27;;
72109;SDS011;59983;52.010;5.420;2022-10-22T12:42:50;14.68;;;2.88;;
72109;SDS011;59983;52.010;5.420;2022-10-22T12:45:20;10.63;;;2.90;;
72109;SDS011;59983;52.010;5.420;2022-10-22T12:50:50;8.68;;;3.03;;
72109;SDS011;59983;52.010;5.420;2022-10-22T12:56:03;8.18;;;3.25;;
72109;SDS011;59983;52.010;5.420;2022-10-22T12:58:34;11.10;;;3.30;;
72109;SDS011;59983;52.010;5.420;2022-10-22T13:01:04;13.82;;;3.85;;
72109;SDS011;59983;52.010;5.420;2022-10-22T13:03:33;9.85;;;3.42;;
72109;SDS011;59983;52.010;5.420;2022-10-22T13:11:47;5.05;;;2.60;;
72109;SDS011;59983;52.010;5.420;2022-10-22T13:14:33;13.32;;;3.58;;
72109;SDS011;59983;52.010;5.420;2022-10-22T13:17:14;10.77;;;4.28;;
72109;SDS011;59983;52.010;5.420;2022-10-22T13:22:31;14.75;;;4.40;;
72109;SDS011;59983;52.010;5.420;2022-10-22T13:27:42;11.27;;;3.55;;
72109;SDS011;59983;52.010;5.420;2022-10-22T13:30:16;12.90;;;3.50;;
72109;SDS011;59983;52.010;5.420;2022-10-22T13:32:48;9.30;;;3.50;;
72109;SDS011;59983;52.010;5.420;2022-10-22T13:35:17;12.15;;;3.67;;
72109;SDS011;59983;52.010;5.420;2022-10-22T13:37:49;10.38;;;4.18;;
72109;SDS011;59983;52.010;5.420;2022-10-22T13:40:16;12.57;;;3.80;;
72109;SDS011;59983;52.010;5.420;2022-10-22T13:42:42;10.50;;;3.25;;
72109;SDS011;59983;52.010;5.420;2022-10-22T13:45:10;12.03;;;4.23;;
72109;SDS011;59983;52.010;5.420;2022-10-22T13:47:37;11.20;;;4.70;;
72109;SDS011;59983;52.010;5.420;2022-10-22T13:50:12;12.73;;;3.55;;
72109;SDS011;59983;52.010;5.420;2022-10-22T13:52:42;9.27;;;3.75;;
72109;SDS011;59983;52.010;5.420;2022-10-22T13:55:11;12.32;;;3.28;;
72109;SDS011;59983;52.010;5.420;2022-10-22T13:57:59;13.00;;;3.80;;
72109;SDS011;59983;52.010;5.420;2022-10-22T14:00:40;14.70;;;4.50;;
72109;SDS011;59983;52.010;5.420;2022-10-22T14:03:09;18.67;;;3.70;;
72109;SDS011;59983;52.010;5.420;2022-10-22T14:05:38;11.82;;;3.65;;
72109;SDS011;59983;52.010;5.420;2022-10-22T14:08:08;17.05;;;4.13;;
72109;SDS011;59983;52.010;5.420;2022-10-22T14:10:38;7.80;;;2.93;;
72109;SDS011;59983;52.010;5.420;2022-10-22T14:13:14;10.05;;;3.30;;
72109;SDS011;59983;52.010;5.420;2022-10-22T14:15:42;8.68;;;3.47;;
72109;SDS011;59983;52.010;5.420;2022-10-22T14:18:11;9.75;;;3.33;;
72109;SDS011;59983;52.010;5.420;2022-10-22T14:20:42;9.85;;;3.08;;
72109;SDS011;59983;52.010;5.420;2022-10-22T14:23:15;8.23;;;3.47;;
72109;SDS011;59983;52.010;5.420;2022-10-22T14:25:45;8.77;;;3.47;;
72109;SDS011;59983;52.010;5.420;2022-10-22T14:28:12;11.43;;;3.55;;
72109;SDS011;59983;52.010;5.420;2022-10-22T14:30:39;11.27;;;3.75;;
72109;SDS011;59983;52.010;5.420;2022-10-22T14:33:40;6.40;;;3.25;;
72109;SDS011;59983;52.010;5.420;2022-10-22T14:35:59;10.40;;;3.40;;
72109;SDS011;59983;52.010;5.420;2022-10-22T14:38:26;13.82;;;4.32;;
72109;SDS011;59983;52.010;5.420;2022-10-22T14:40:53;9.80;;;3.35;;
72109;SDS011;59983;52.010;5.420;2022-10-22T14:43:22;10.02;;;3.63;;
72109;SDS011;59983;52.010;5.420;2022-10-22T14:45:50;13.13;;;3.45;;
72109;SDS011;59983;52.010;5.420;2022-10-22T14:48:17;8.30;;;3.70;;
72109;SDS011;59983;52.010;5.420;2022-10-22T14:50:45;12.02;;;4.00;;
72109;SDS011;59983;52.010;5.420;2022-10-22T14:53:12;10.57;;;3.72;;
72109;SDS011;59983;52.010;5.420;2022-10-22T14:55:40;9.30;;;4.20;;
72109;SDS011;59983;52.010;5.420;2022-10-22T14:58:08;9.15;;;3.53;;
72109;SDS011;59983;52.010;5.420;2022-10-22T15:00:35;11.00;;;3.30;;
72109;SDS011;59983;52.010;5.420;2022-10-22T15:03:02;7.55;;;3.30;;
72109;SDS011;59983;52.010;5.420;2022-10-22T15:05:29;7.72;;;3.00;;
72109;SDS011;59983;52.010;5.420;2022-10-22T15:07:56;9.27;;;3.67;;
72109;SDS011;59983;52.010;5.420;2022-10-22T15:10:24;8.10;;;3.20;;
72109;SDS011;59983;52.010;5.420;2022-10-22T15:12:51;11.07;;;3.93;;
72109;SDS011;59983;52.010;5.420;2022-10-22T15:15:18;8.82;;;3.53;;
72109;SDS011;59983;52.010;5.420;2022-10-22T15:17:48;7.85;;;2.60;;
72109;SDS011;59983;52.010;5.420;2022-10-22T15:20:14;9.35;;;3.00;;
72109;SDS011;59983;52.010;5.420;2022-10-22T15:22:41;8.38;;;3.30;;
72109;SDS011;59983;52.010;5.420;2022-10-22T15:25:08;11.93;;;4.10;;
72109;SDS011;59983;52.010;5.420;2022-10-22T15:27:35;13.25;;;3.20;;
72109;SDS011;59983;52.010;5.420;2022-10-22T15:30:01;13.25;;;4.20;;
72109;SDS011;59983;52.010;5.420;2022-10-22T15:32:29;5.38;;;2.88;;
72109;SDS011;59983;52.010;5.420;2022-10-22T15:34:57;11.18;;;2.85;;
72109;SDS011;59983;52.010;5.420;2022-10-22T15:37:23;13.00;;;3.70;;
72109;SDS011;59983;52.010;5.420;2022-10-22T15:39:50;10.15;;;3.63;;
72109;SDS011;59983;52.010;5.420;2022-10-22T15:42:16;4.65;;;2.50;;
72109;SDS011;59983;52.010;5.420;2022-10-22T15:44:46;7.90;;;3.10;;
72109;SDS011;59983;52.010;5.420;2022-10-22T15:47:12;3.72;;;3.00;;
72109;SDS011;59983;52.010;5.420;2022-10-22T15:49:39;10.30;;;3.37;;
72109;SDS011;59983;52.010;5.420;2022-10-22T15:52:06;10.75;;;2.90;;
72109;SDS011;59983;52.010;5.420;2022-10-22T15:54:34;12.85;;;4.00;;
72109;SDS011;59983;52.010;5.420;2022-10-22T15:57:00;10.35;;;4.03;;
72109;SDS011;59983;52.010;5.420;2022-10-22T15:59:29;12.60;;;3.78;;
72109;SDS011;59983;52.010;5.420;2022-10-22T16:01:55;8.80;;;4.60;;
72109;SDS011;59983;52.010;5.420;2022-10-22T16:04:22;14.93;;;4.63;;
72109;SDS011;59983;52.010;5.420;2022-10-22T16:06:49;12.45;;;4.03;;
72109;SDS011;59983;52.010;5.420;2022-10-22T16:09:21;11.35;;;3.30;;
72109;SDS011;59983;52.010;5.420;2022-10-22T16:11:49;11.77;;;3.90;;
72109;SDS011;59983;52.010;5.420;2022-10-22T16:14:22;10.60;;;3.40;;
72109;SDS011;59983;52.010;5.420;2022-10-22T16:16:50;9.45;;;3.70;;
72109;SDS011;59983;52.010;5.420;2022-10-22T16:19:18;9.00;;;4.40;;
72109;SDS011;59983;52.010;5.420;2022-10-22T16:21:47;6.95;;;2.88;;
72109;SDS011;59983;52.010;5.420;2022-10-22T16:24:16;4.32;;;3.50;;
72109;SDS011;59983;52.010;5.420;2022-10-22T16:26:42;8.03;;;3.70;;
72109;SDS011;59983;52.010;5.420;2022-10-22T16:29:09;12.25;;;4.35;;
72109;SDS011;59983;52.010;5.420;2022-10-22T16:31:38;14.60;;;4.50;;
72109;SDS011;59983;52.010;5.420;2022-10-22T16:34:06;9.52;;;4.72;;
72109;SDS011;59983;52.010;5.420;2022-10-22T16:36:32;9.95;;;4.65;;
72109;SDS011;59983;52.010;5.420;2022-10-22T16:39:01;11.97;;;4.43;;
72109;SDS011;59983;52.010;5.420;2022-10-22T16:41:28;9.57;;;5.32;;
72109;SDS011;59983;52.010;5.420;2022-10-22T16:44:01;10.15;;;7.82;;
72109;SDS011;59983;52.010;5.420;2022-10-22T16:46:30;10.73;;;7.90;;
72109;SDS011;59983;52.010;5.420;2022-10-22T16:48:58;15.35;;;9.52;;
72109;SDS011;59983;52.010;5.420;2022-10-22T16:51:25;12.30;;;9.73;;